Time;durP1;ratioP1;P1;durP2;ratioP2;P2;SDS_P1;SDS_P2;PMS_P1;PMS_P2;Temp;Humidity;BMP_temperature;BMP_pressure;BME280_temperature;BME280_humidity;BME280_pressure;Samples;Min_cycle;Max_cycle;Signal;HPM_P1;HPM_P2
2022/06/05 00:00:08;;;;;;;9.90;6.38;;;12.80;99.90;;;;;;5023233;28;20093;-76
2022/06/05 00:03:13;;;;;;;11.68;7.20;;;12.80;99.90;;;;;;5024143;28;20038;-76
2022/06/05 00:05:50;;;;;;;7.75;6.43;;;12.90;99.90;;;;;;5017241;28;20053;-76
2022/06/05 00:08:48;;;;;;;11.13;7.15;;;12.80;99.90;;;;;;5026277;28;20061;-76
2022/06/05 00:11:14;;;;;;;9.43;7.00;;;12.70;99.90;;;;;;5017522;28;20054;-76
2022/06/05 00:13:55;;;;;;;7.82;7.00;;;12.80;99.90;;;;;;5021897;28;20118;-76
2022/06/05 00:16:28;;;;;;;8.20;6.70;;;12.80;99.90;;;;;;5022278;28;21741;-76
2022/06/05 00:18:54;;;;;;;;;;;12.80;99.90;;;;;;5023384;28;20874;-76
2022/06/05 00:21:20;;;;;;;8.48;7.03;;;12.90;99.90;;;;;;5024369;28;19921;-76
2022/06/05 00:23:46;;;;;;;8.25;6.88;;;12.80;99.90;;;;;;5020636;28;20064;-76
2022/06/05 00:26:18;;;;;;;9.85;7.15;;;12.90;99.90;;;;;;5023446;28;20057;-76
2022/06/05 00:28:53;;;;;;;9.20;7.88;;;12.90;99.90;;;;;;5025705;28;20041;-76
2022/06/05 00:32:11;;;;;;;8.32;7.18;;;12.90;99.90;;;;;;5021733;28;20119;-76
2022/06/05 00:34:38;;;;;;;11.13;8.00;;;12.90;99.90;;;;;;4993978;28;20056;-76
2022/06/05 00:37:12;;;;;;;9.68;8.00;;;12.90;99.90;;;;;;5025706;28;20098;-78
2022/06/05 00:40:08;;;;;;;10.43;8.30;;;12.90;99.90;;;;;;5025245;28;20057;-77
2022/06/05 00:42:34;;;;;;;10.32;8.63;;;12.90;99.90;;;;;;5022633;28;20041;-77
2022/06/05 00:45:06;;;;;;;8.35;7.28;;;12.90;99.90;;;;;;5022590;28;20401;-77
2022/06/05 00:47:33;;;;;;;10.80;8.25;;;13.00;99.90;;;;;;5022414;28;20037;-77
2022/06/05 00:50:18;;;;;;;10.00;8.50;;;13.00;99.90;;;;;;5044290;28;20140;-77
2022/06/05 00:52:48;;;;;;;10.60;8.50;;;13.00;99.90;;;;;;5022144;28;20049;-77
2022/06/05 00:55:15;;;;;;;10.05;8.80;;;12.90;99.90;;;;;;5027185;28;20056;-76
2022/06/05 00:57:42;;;;;;;13.07;8.50;;;13.00;99.90;;;;;;5028511;28;20072;-77
2022/06/05 01:00:27;;;;;;;10.85;7.57;;;13.00;99.90;;;;;;5022484;28;20046;-77
2022/06/05 01:02:55;;;;;;;10.80;7.68;;;13.00;99.90;;;;;;5029982;28;20096;-76
2022/06/05 01:05:23;;;;;;;9.68;7.88;;;13.00;99.90;;;;;;5027830;28;20207;-76
2022/06/05 01:07:49;;;;;;;11.10;7.55;;;13.00;99.90;;;;;;5042937;28;20377;-77
2022/06/05 01:10:17;;;;;;;10.30;7.55;;;13.00;99.90;;;;;;5027503;28;20053;-77
2022/06/05 01:13:20;;;;;;;10.73;7.88;;;12.90;99.90;;;;;;5023408;28;20567;-76
2022/06/05 01:16:07;;;;;;;10.25;7.45;;;13.00;99.90;;;;;;5027147;28;20128;-77
2022/06/05 01:18:41;;;;;;;10.77;7.15;;;13.00;99.90;;;;;;5026240;28;20559;-77
2022/06/05 01:21:42;;;;;;;7.82;6.63;;;13.00;99.90;;;;;;5025987;28;20041;-77
2022/06/05 01:24:26;;;;;;;9.40;7.38;;;12.90;99.90;;;;;;4989242;28;20050;-77
2022/06/05 01:27:05;;;;;;;11.63;7.65;;;12.90;99.90;;;;;;5026345;28;20048;-77
2022/06/05 01:29:47;;;;;;;9.95;7.22;;;12.90;99.90;;;;;;5026494;28;20046;-77
2022/06/05 01:32:26;;;;;;;10.70;7.03;;;12.90;99.90;;;;;;5027573;28;20085;-77
2022/06/05 01:34:57;;;;;;;10.40;7.30;;;12.90;99.90;;;;;;5026180;28;20187;-77
2022/06/05 01:37:46;;;;;;;9.38;7.30;;;13.00;99.90;;;;;;5026502;28;20124;-77
2022/06/05 01:40:24;;;;;;;8.77;7.47;;;13.10;99.90;;;;;;5025350;28;20068;-77
2022/06/05 01:42:57;;;;;;;10.50;7.13;;;12.90;99.90;;;;;;5025128;28;20401;-77
2022/06/05 01:45:27;;;;;;;9.10;6.75;;;13.00;99.90;;;;;;5026321;28;20049;-77
2022/06/05 01:47:55;;;;;;;10.82;6.93;;;13.00;99.90;;;;;;5025596;28;20128;-77
2022/06/05 01:50:26;;;;;;;11.55;7.10;;;12.90;99.90;;;;;;5022516;28;20049;-76
2022/06/05 01:53:14;;;;;;;10.80;7.28;;;12.90;99.90;;;;;;5026253;28;20057;-76
2022/06/05 01:56:04;;;;;;;8.90;6.70;;;13.00;99.90;;;;;;5024761;28;20042;-76
2022/06/05 01:58:44;;;;;;;11.18;6.90;;;12.90;99.90;;;;;;5022684;28;20539;-76
2022/06/05 02:01:17;;;;;;;11.13;7.60;;;12.80;99.90;;;;;;5024395;28;20041;-76
2022/06/05 02:03:48;;;;;;;9.82;6.95;;;12.80;99.90;;;;;;5022624;28;20128;-76
2022/06/05 02:06:22;;;;;;;11.15;6.75;;;12.80;99.90;;;;;;5024372;28;20067;-77
2022/06/05 02:09:18;;;;;;;12.18;7.18;;;12.80;99.90;;;;;;5027150;28;20064;-76
2022/06/05 02:11:45;;;;;;;9.77;6.97;;;12.90;99.90;;;;;;5025250;28;20056;-76
2022/06/05 02:14:11;;;;;;;12.65;7.20;;;12.90;99.90;;;;;;5025592;28;20041;-76
2022/06/05 02:16:39;;;;;;;10.02;6.85;;;12.90;99.90;;;;;;5027594;28;20033;-76
2022/06/05 02:19:09;;;;;;;10.27;7.65;;;12.90;99.90;;;;;;5024672;28;20397;-76
2022/06/05 02:21:37;;;;;;;10.38;7.60;;;12.80;99.90;;;;;;5027502;28;20393;-77
2022/06/05 02:24:08;;;;;;;9.88;7.63;;;12.80;99.90;;;;;;5026468;28;20041;-76
2022/06/05 02:26:35;;;;;;;9.15;7.88;;;12.80;99.90;;;;;;5026759;28;20083;-76
2022/06/05 02:29:10;;;;;;;10.93;8.43;;;12.80;99.90;;;;;;5024204;28;20069;-77
2022/06/05 02:31:48;;;;;;;14.20;8.35;;;12.80;99.90;;;;;;5026861;28;20041;-77
2022/06/05 02:34:34;;;;;;;10.32;8.38;;;12.80;99.90;;;;;;5027925;28;20385;-77
2022/06/05 02:37:17;;;;;;;13.27;8.63;;;12.80;99.90;;;;;;5024699;28;20045;-77
2022/06/05 02:40:09;;;;;;;11.90;8.50;;;12.80;99.90;;;;;;5026499;28;20479;-77
2022/06/05 02:43:21;;;;;;;10.18;7.93;;;12.80;99.90;;;;;;5023003;28;20045;-77
2022/06/05 02:45:59;;;;;;;9.82;8.40;;;12.70;99.90;;;;;;5001856;28;20432;-77
2022/06/05 02:48:31;;;;;;;12.40;9.40;;;12.70;99.90;;;;;;5025440;28;20049;-77
2022/06/05 02:50:59;;;;;;;9.90;8.90;;;12.70;99.90;;;;;;5026033;28;20156;-77
2022/06/05 02:53:25;;;;;;;9.27;8.25;;;12.70;99.90;;;;;;5021534;28;20049;-77
2022/06/05 02:55:51;;;;;;;12.80;9.23;;;12.80;99.90;;;;;;5024026;28;20056;-77
2022/06/05 02:58:17;;;;;;;10.75;9.20;;;12.70;99.90;;;;;;5024960;28;20042;-77
2022/06/05 03:03:27;;;;;;;11.75;8.95;;;12.70;99.90;;;;;;5025189;28;20037;-77
2022/06/05 03:03:29;;;;;;;10.65;9.52;;;12.80;99.90;;;;;;5027307;28;20477;-77
2022/06/05 03:05:54;;;;;;;12.55;9.25;;;12.80;99.90;;;;;;5026889;28;20049;-77
2022/06/05 03:08:21;;;;;;;12.23;9.18;;;12.70;99.90;;;;;;5025195;28;20049;-77
2022/06/05 03:10:47;;;;;;;14.38;9.90;;;12.70;99.90;;;;;;5024163;28;20385;-77
2022/06/05 03:13:14;;;;;;;11.48;9.63;;;12.70;99.90;;;;;;5024947;28;20059;-77
2022/06/05 03:15:41;;;;;;;13.45;9.90;;;12.70;99.90;;;;;;5027037;28;20053;-77
2022/06/05 03:18:07;;;;;;;13.57;9.63;;;12.80;99.90;;;;;;5020316;28;20468;-76
2022/06/05 03:20:33;;;;;;;14.05;9.38;;;12.70;99.90;;;;;;5025580;28;20041;-77
2022/06/05 03:23:00;;;;;;;13.07;9.15;;;12.70;99.90;;;;;;5021820;28;20608;-77
2022/06/05 03:25:29;;;;;;;13.40;8.90;;;12.70;99.90;;;;;;5020192;28;20041;-77
2022/06/05 03:27:55;;;;;;;13.75;9.02;;;13.10;99.90;;;;;;5020741;28;20052;-77
2022/06/05 03:30:21;;;;;;;11.98;9.32;;;12.80;99.90;;;;;;5020792;28;20097;-76
2022/06/05 03:32:47;;;;;;;13.70;9.00;;;12.80;99.90;;;;;;5027236;28;20052;-77
2022/06/05 03:35:14;;;;;;;13.18;9.55;;;12.80;99.90;;;;;;5019878;28;20042;-77
2022/06/05 03:37:40;;;;;;;13.75;9.80;;;12.80;99.90;;;;;;5025884;28;20034;-77
2022/06/05 03:40:10;;;;;;;12.38;9.55;;;;;;;;;;5018100;28;20053;-76
2022/06/05 03:42:36;;;;;;;13.38;9.85;;;;;;;;;;5024168;28;20405;-76
2022/06/05 03:45:02;;;;;;;14.68;10.15;;;;;;;;;;5026897;28;20550;-77
2022/06/05 03:47:28;;;;;;;12.27;10.30;;;;;;;;;;5022712;28;20033;-76
2022/06/05 03:49:54;;;;;;;12.07;9.88;;;;;;;;;;5026463;28;20500;-77
2022/06/05 03:52:20;;;;;;;14.68;10.57;;;;;;;;;;5018937;28;20064;-77
2022/06/05 03:54:46;;;;;;;14.13;11.07;;;;;;;;;;5023476;28;20041;-76
2022/06/05 03:57:12;;;;;;;14.13;11.05;;;;;;;;;;5018441;28;20060;-76
2022/06/05 03:59:38;;;;;;;13.23;10.50;;;;;;;;;;5022066;28;20393;-76
2022/06/05 04:02:05;;;;;;;14.90;10.52;;;;;;;;;;5018580;28;20049;-77
2022/06/05 04:04:31;;;;;;;14.98;10.80;;;;;;;;;;5025259;28;20049;-76
2022/06/05 04:06:57;;;;;;;14.20;10.05;;;;;;;;;;5025145;28;20048;-76
2022/06/05 04:09:24;;;;;;;16.88;10.30;;;;;;;;;;5022486;28;20057;-77
2022/06/05 04:11:50;;;;;;;15.63;10.10;;;;;;;;;;5023519;28;20107;-76
2022/06/05 04:14:16;;;;;;;13.13;9.82;;;;;;;;;;5022925;28;20038;-76
2022/06/05 04:16:43;;;;;;;14.05;10.75;;;;;;;;;;5025085;28;20081;-77
2022/06/05 04:19:09;;;;;;;13.48;10.02;;;;;;;;;;5022554;28;20863;-76
2022/06/05 04:21:36;;;;;;;14.88;10.02;;;;;;;;;;5022930;28;20056;-77
2022/06/05 04:24:02;;;;;;;12.55;10.15;;;;;;;;;;5019415;28;20106;-76
2022/06/05 04:26:31;;;;;;;14.73;10.85;;;;;;;;;;5026740;28;20059;-77
2022/06/05 04:28:57;;;;;;;13.05;10.80;;;;;;;;;;5030924;28;20489;-76
2022/06/05 04:31:26;;;;;;;16.60;11.77;;;;;;;;;;5026422;28;20043;-77
2022/06/05 04:33:54;;;;;;;18.15;11.90;;;;;;;;;;5027618;28;20042;-77
2022/06/05 04:36:20;;;;;;;16.67;12.05;;;;;;;;;;5029932;28;20330;-77
2022/06/05 04:38:47;;;;;;;14.20;12.70;;;;;;;;;;5024770;28;20041;-77
2022/06/05 04:41:13;;;;;;;15.40;12.15;;;;;;;;;;5025949;28;20634;-76
2022/06/05 04:43:39;;;;;;;15.13;12.25;;;;;;;;;;5027197;28;20124;-77
2022/06/05 04:46:06;;;;;;;18.83;11.68;;;;;;;;;;5030084;28;20149;-77
2022/06/05 04:48:35;;;;;;;15.85;11.88;;;;;;;;;;5025274;28;20045;-77
2022/06/05 04:51:08;;;;;;;15.07;12.32;;;;;;;;;;5029934;28;20140;-77
2022/06/05 04:53:35;;;;;;;14.70;11.90;;;;;;;;;;5028333;28;20509;-77
2022/06/05 04:56:04;;;;;;;14.63;11.27;;;;;;;;;;5027281;28;20048;-76
2022/06/05 04:58:30;;;;;;;16.85;12.20;;;;;;;;;;5040215;28;20148;-76
2022/06/05 05:00:56;;;;;;;13.52;10.88;;;;;;;;;;5027797;28;20038;-76
2022/06/05 05:03:22;;;;;;;12.50;10.88;;;;;;;;;;5025164;28;20111;-77
2022/06/05 05:05:48;;;;;;;12.52;10.15;;;;;;;;;;5030669;28;20041;-76
2022/06/05 05:08:14;;;;;;;13.63;10.45;;;;;;;;;;5027031;28;20049;-76
2022/06/05 05:10:41;;;;;;;16.02;10.98;;;;;;;;;;5027352;28;20114;-77
2022/06/05 05:13:07;;;;;;;13.02;10.07;;;;;;;;;;5024706;28;20057;-77
2022/06/05 05:15:33;;;;;;;15.57;9.45;;;;;;;;;;5027715;28;20048;-77
2022/06/05 05:17:59;;;;;;;11.80;9.10;;;;;;;;;;5031295;28;20048;-77
2022/06/05 05:20:26;;;;;;;13.55;9.52;;;;;;;;;;5028185;28;20050;-77
2022/06/05 05:22:52;;;;;;;12.82;9.20;;;;;;;;;;5025811;28;20501;-77
2022/06/05 05:25:18;;;;;;;13.93;10.10;;;;;;;;;;5027409;28;20060;-77
2022/06/05 05:27:44;;;;;;;13.60;10.05;;;;;;;;;;5026184;28;20057;-76
2022/06/05 05:30:11;;;;;;;11.23;8.95;;;;;;;;;;5025854;28;20095;-77
2022/06/05 05:32:37;;;;;;;13.90;8.88;;;;;;;;;;5028560;28;20049;-76
2022/06/05 05:35:04;;;;;;;11.85;9.00;;;;;;;;;;5025682;28;20408;-76
2022/06/05 05:37:30;;;;;;;13.82;9.75;;;;;;;;;;5030334;28;20041;-76
2022/06/05 05:42:41;;;;;;;13.27;10.10;;;;;;;;;;5024910;28;20041;-76
2022/06/05 05:45:07;;;;;;;12.00;9.48;;;;;;;;;;5016999;28;20048;-76
2022/06/05 05:47:33;;;;;;;13.77;9.25;;;;;;;;;;5026724;28;20042;-76
2022/06/05 05:50:00;;;;;;;11.30;9.45;;;;;;;;;;5027759;28;20125;-76
2022/06/05 05:52:27;;;;;;;15.73;9.93;;;;;;;;;;5030469;28;20581;-76
2022/06/05 05:54:53;;;;;;;14.57;9.48;;;;;;;;;;5028389;28;20037;-76
2022/06/05 05:57:19;;;;;;;12.18;9.45;;;;;;;;;;5026965;28;20053;-76
2022/06/05 05:59:46;;;;;;;11.38;9.38;;;;;;;;;;5026509;28;20092;-76
2022/06/05 06:02:16;;;;;;;13.13;9.68;;;;;;;;;;5027130;28;20125;-76
2022/06/05 06:04:42;;;;;;;11.13;9.60;;;;;;;;;;5022685;28;20038;-76
2022/06/05 06:07:15;;;;;;;12.25;9.10;;;;;;;;;;5026120;28;20152;-76
2022/06/05 06:09:41;;;;;;;11.20;9.18;;;;;;;;;;5028086;28;20538;-76
2022/06/05 06:12:07;;;;;;;14.32;9.18;;;;;;;;;;5025027;28;20053;-76
2022/06/05 06:14:33;;;;;;;16.73;10.27;;;;;;;;;;5028476;28;20045;-76
2022/06/05 06:17:00;;;;;;;16.45;9.23;;;;;;;;;;5026890;28;20493;-76
2022/06/05 06:19:26;;;;;;;12.73;9.30;;;;;;;;;;5027218;28;20045;-76
2022/06/05 06:21:52;;;;;;;12.38;9.48;;;;;;;;;;5028255;28;20147;-76
2022/06/05 06:24:18;;;;;;;11.55;9.57;;;;;;;;;;5024056;28;20049;-76
2022/06/05 06:26:44;;;;;;;12.15;9.50;;;;;;;;;;5025553;28;20464;-76
2022/06/05 06:29:10;;;;;;;11.48;9.55;;;;;;;;;;5026578;28;20038;-76
2022/06/05 06:31:38;;;;;;;13.00;9.85;;;;;;;;;;5026690;28;20519;-76
2022/06/05 06:34:04;;;;;;;12.85;9.23;;;;;;;;;;5025587;28;20064;-77
2022/06/05 06:36:32;;;;;;;11.55;9.05;;;;;;;;;;5027966;28;20529;-76
2022/06/05 06:38:58;;;;;;;12.45;9.15;;;;;;;;;;5028713;28;20045;-77
2022/06/05 06:41:24;;;;;;;11.25;9.23;;;;;;;;;;5023880;28;20053;-77
2022/06/05 06:43:50;;;;;;;13.00;9.20;;;;;;;;;;5026077;28;20045;-76
2022/06/05 06:46:17;;;;;;;12.82;9.75;;;;;;;;;;5024126;28;20049;-76
2022/06/05 06:48:43;;;;;;;13.23;9.60;;;;;;;;;;5022123;28;21550;-77
2022/06/05 06:51:09;;;;;;;12.15;9.38;;;;;;;;;;5028418;28;20087;-76
2022/06/05 06:53:36;;;;;;;10.82;9.70;;;;;;;;;;5026739;28;20405;-76
2022/06/05 06:56:13;;;;;;;12.38;9.25;;;;;;;;;;5025779;28;20227;-76
2022/06/05 06:58:39;;;;;;;12.80;10.02;;;;;;;;;;5028438;28;20076;-76
2022/06/05 07:01:05;;;;;;;13.07;9.02;;;;;;;;;;5023183;28;20057;-76
2022/06/05 07:03:33;;;;;;;13.55;9.90;;;;;;;;;;5023903;28;20049;-76
2022/06/05 07:06:00;;;;;;;12.45;9.43;;;;;;;;;;5025745;28;20042;-76
2022/06/05 07:08:26;;;;;;;13.52;10.13;;;;;;;;;;5026793;28;20596;-76
2022/06/05 07:10:53;;;;;;;10.50;9.20;;;;;;;;;;5024793;28;20041;-76
2022/06/05 07:13:19;;;;;;;12.57;9.65;;;;;;;;;;5022941;28;20080;-76
2022/06/05 07:15:45;;;;;;;11.63;9.77;;;;;;;;;;5023039;28;20042;-76
2022/06/05 07:18:11;;;;;;;14.13;9.63;;;;;;;;;;5026413;28;20037;-77
2022/06/05 07:20:38;;;;;;;11.93;9.05;;;;;;;;;;5024505;28;20495;-77
2022/06/05 07:23:05;;;;;;;10.95;9.50;;;;;;;;;;5024160;28;20511;-76
2022/06/05 07:25:31;;;;;;;12.90;9.07;;;;;;;;;;5025543;28;20050;-76
2022/06/05 07:27:57;;;;;;;10.65;9.05;;;;;;;;;;5027234;28;20120;-77
2022/06/05 07:30:24;;;;;;;10.20;9.02;;;;;;;;;;5019540;28;20069;-76
2022/06/05 07:32:50;;;;;;;10.52;9.07;;;;;;;;;;5025425;28;20046;-76
2022/06/05 07:35:17;;;;;;;12.00;9.02;;;;;;;;;;5021740;28;20370;-76
2022/06/05 07:37:46;;;;;;;11.10;8.93;;;;;;;;;;5027440;28;20037;-76
2022/06/05 07:40:12;;;;;;;11.90;9.45;;;;;;;;;;5020587;28;20053;-76
2022/06/05 07:42:40;;;;;;;10.60;8.52;;;;;;;;;;5028929;28;20214;-77
2022/06/05 07:45:10;;;;;;;11.38;8.70;;;;;;;;;;5024824;28;20064;-76
2022/06/05 07:47:37;;;;;;;14.77;8.88;;;;;;;;;;5023389;28;20041;-76
2022/06/05 07:50:03;;;;;;;10.98;9.02;;;;;;;;;;5023719;28;20075;-77
2022/06/05 07:55:14;;;;;;;11.65;9.38;;;;;;;;;;5023077;28;20049;-76
2022/06/05 07:57:40;;;;;;;12.18;8.57;;;;;;;;;;5028020;28;22020;-77
2022/06/05 08:00:08;;;;;;;10.50;8.50;;;;;;;;;;5026296;28;20057;-76
2022/06/05 08:02:34;;;;;;;10.32;8.80;;;;;;;;;;5025135;28;20051;-76
2022/06/05 08:05:02;;;;;;;9.77;8.77;;;;;;;;;;5025854;28;20052;-76
2022/06/05 08:07:29;;;;;;;11.25;8.80;;;;;;;;;;5024180;28;20049;-76
2022/06/05 08:09:55;;;;;;;11.50;8.40;;;;;;;;;;5026066;28;20052;-77
2022/06/05 08:12:22;;;;;;;9.88;8.57;;;;;;;;;;5023930;28;20057;-77
2022/06/05 08:14:49;;;;;;;9.98;8.63;;;;;;;;;;5023656;28;20037;-77
2022/06/05 08:17:17;;;;;;;10.13;8.48;;;;;;;;;;5028322;28;20041;-77
2022/06/05 08:19:44;;;;;;;9.73;8.68;;;;;;;;;;5019955;28;20191;-77
2022/06/05 08:22:11;;;;;;;10.40;8.95;;;;;;;;;;5024490;28;20057;-75
2022/06/05 08:24:37;;;;;;;10.00;8.35;;;;;;;;;;5022454;28;20049;-76
2022/06/05 08:27:03;;;;;;;10.68;8.57;;;;;;;;;;5022424;28;20057;-78
2022/06/05 08:29:29;;;;;;;9.30;8.38;;;;;;;;;;5029968;28;20049;-77
2022/06/05 08:31:55;;;;;;;9.68;8.50;;;;;;;;;;5027111;28;20045;-77
2022/06/05 08:34:22;;;;;;;9.90;8.73;;;;;;;;;;5029372;28;20048;-80
2022/06/05 08:41:26;;;;;;;10.40;8.80;;;;;;;;;;5021431;28;20041;-79
2022/06/05 08:42:28;;;;;;;10.50;8.52;;;;;;;;;;5038855;28;20061;-77
2022/06/05 08:44:59;;;;;;;9.48;7.85;;;;;;;;;;5023048;28;20041;-77
2022/06/05 08:47:43;;;;;;;9.60;8.60;;;;;;;;;;5024894;28;20045;-78
2022/06/05 08:50:16;;;;;;;9.23;8.32;;;;;;;;;;5025337;28;20125;-79
2022/06/05 08:52:49;;;;;;;8.90;7.97;;;;;;;;;;5023143;28;20049;-76
2022/06/05 08:55:18;;;;;;;9.40;8.43;;;;;;;;;;5024174;28;20053;-78
2022/06/05 08:57:46;;;;;;;9.88;8.23;;;;;;;;;;5026060;28;20033;-78
2022/06/05 09:00:19;;;;;;;11.07;8.68;;;;;;;;;;5026262;28;20060;-78
2022/06/05 09:02:50;;;;;;;10.00;8.75;;;;;;;;;;5025969;28;20080;-77
2022/06/05 09:05:19;;;;;;;9.52;8.50;;;;;;;;;;5025719;28;20046;-79
2022/06/05 09:07:47;;;;;;;9.93;7.95;;;;;;;;;;5026027;28;20046;-78
2022/06/05 09:10:22;;;;;;;9.88;8.30;;;;;;;;;;5028232;28;20050;-77
2022/06/05 09:12:51;;;;;;;9.77;8.52;;;;;;;;;;5040048;28;20465;-77
2022/06/05 09:15:26;;;;;;;9.93;8.82;;;;;;;;;;5027529;28;20068;-76
2022/06/05 09:17:57;;;;;;;8.95;8.05;;;;;;;;;;5028847;28;20091;-78
2022/06/05 09:20:38;;;;;;;9.40;8.57;;;;;;;;;;5026910;28;20041;-76
2022/06/05 09:23:08;;;;;;;9.48;8.48;;;;;;;;;;5025417;28;20144;-77
2022/06/05 09:25:45;;;;;;;9.80;8.80;;;;;;;;;;5025839;28;20060;-76
2022/06/05 09:28:18;;;;;;;9.43;8.52;;;;;;;;;;5027895;28;20045;-76
2022/06/05 09:31:02;;;;;;;9.32;8.02;;;;;;;;;;5024304;28;20045;-76
2022/06/05 09:33:34;;;;;;;9.27;8.23;;;;;;;;;;5027757;28;20054;-76
2022/06/05 09:36:02;;;;;;;9.90;8.68;;;;;;;;;;5027187;28;20060;-76
2022/06/05 09:38:38;;;;;;;9.77;8.30;;;;;;;;;;5028760;28;20369;-77
2022/06/05 09:41:04;;;;;;;9.27;8.38;;;;;;;;;;5023432;28;20068;-78
2022/06/05 09:43:38;;;;;;;8.82;7.95;;;;;;;;;;5024461;28;20146;-77
2022/06/05 09:46:16;;;;;;;8.82;8.00;;;;;;;;;;5024848;28;20077;-76
2022/06/05 09:49:09;;;;;;;9.35;8.18;;;;;;;;;;5028687;28;20041;-77
2022/06/05 09:51:37;;;;;;;8.95;8.05;;;;;;;;;;5017182;28;20056;-76
2022/06/05 09:54:11;;;;;;;8.73;7.90;;;;;;;;;;5025119;28;20042;-76
2022/06/05 09:58:24;;;;;;;10.52;8.43;;;;;;;;;;5023001;28;20045;-77
2022/06/05 09:59:27;;;;;;;8.63;7.65;;;;;;;;;;5024503;28;20146;-76
2022/06/05 10:01:59;;;;;;;9.13;7.70;;;;;;;;;;5026053;28;20451;-78
2022/06/05 10:04:29;;;;;;;11.90;8.23;;;;;;;;;;5029211;28;20417;-78
2022/06/05 10:06:58;;;;;;;8.45;7.65;;;;;;;;;;5029329;28;20077;-76
2022/06/05 10:09:25;;;;;;;10.43;7.82;;;;;;;;;;5027621;28;20041;-77
2022/06/05 10:11:51;;;;;;;8.90;8.00;;;;;;;;;;5017820;28;20302;-77
2022/06/05 10:14:23;;;;;;;8.90;8.00;;;;;;;;;;5023994;28;20485;-77
2022/06/05 10:16:49;;;;;;;10.13;8.25;;;;;;;;;;5024631;28;20050;-76
2022/06/05 10:19:25;;;;;;;8.52;7.68;;;;;;;;;;5025109;28;20455;-76
2022/06/05 10:22:03;;;;;;;8.80;7.60;;;;;;;;;;5024202;28;20049;-77
2022/06/05 10:24:35;;;;;;;8.30;7.50;;;;;;;;;;5027947;28;20125;-77
2022/06/05 10:27:03;;;;;;;8.73;7.93;;;;;;;;;;5018846;28;20465;-77
2022/06/05 10:29:32;;;;;;;8.55;7.75;;;;;;;;;;5017968;28;20120;-77
2022/06/05 10:32:01;;;;;;;8.82;8.02;;;;;;;;;;5024228;28;20045;-77
2022/06/05 10:34:36;;;;;;;8.82;7.93;;;;;;;;;;5027078;28;20045;-77
2022/06/05 10:37:25;;;;;;;9.10;8.20;;;;;;;;;;5021491;28;20042;-77
2022/06/05 10:39:51;;;;;;;8.23;7.43;;;;;;;;;;5011541;28;20081;-77
2022/06/05 10:42:23;;;;;;;9.45;8.45;;;;;;;;;;5024382;28;20081;-77
2022/06/05 10:44:51;;;;;;;;;;;;;;;;;;5023314;28;20054;-78
2022/06/05 10:47:35;;;;;;;9.07;8.18;;;;;;;;;;5021362;28;19951;-78
2022/06/05 10:50:10;;;;;;;10.07;8.70;;;;;;;;;;5026373;28;20060;-77
2022/06/05 10:52:43;;;;;;;9.85;8.95;;;;;;;;;;5028768;28;20099;-77
2022/06/05 10:55:11;;;;;;;10.60;9.48;;;;;;;;;;5022632;28;20038;-77
2022/06/05 10:57:40;;;;;;;10.88;9.13;;;;;;;;;;5017435;28;20041;-77
2022/06/05 11:00:16;;;;;;;10.50;9.40;;;;;;;;;;5023269;28;20041;-77
2022/06/05 11:02:50;;;;;;;9.63;8.57;;;;;;;;;;5026747;28;20045;-77
2022/06/05 11:05:36;;;;;;;10.70;9.75;;;;;;;;;;5025227;28;20063;-77
2022/06/05 11:08:16;;;;;;;9.65;8.65;;;;;;;;;;5026199;28;20033;-77
2022/06/05 11:13:51;;;;;;;9.63;8.63;;;;;;;;;;5036580;28;20116;-78
2022/06/05 11:16:40;;;;;;;9.97;8.97;;;;;;;;;;5023633;28;20085;-78
2022/06/05 11:19:08;;;;;;;11.25;9.30;;;;;;;;;;5018476;28;20068;-77
2022/06/05 11:21:34;;;;;;;10.40;9.38;;;;;;;;;;5027647;28;20048;-77
2022/06/05 11:24:00;;;;;;;10.10;9.00;;;;;;;;;;5025838;28;20046;-78
2022/06/05 11:26:26;;;;;;;9.90;9.00;;;;;;;;;;5019705;28;20045;-78
2022/06/05 11:28:52;;;;;;;10.27;9.30;;;;;;;;;;5024706;28;20052;-78
2022/06/05 11:31:37;;;;;;;10.43;9.35;;;;;;;;;;5019371;28;20040;-78
2022/06/05 11:34:12;;;;;;;10.38;8.70;;;;;;;;;;5019669;28;20049;-78
2022/06/05 11:36:50;;;;;;;10.18;9.05;;;;;;;;;;5023134;28;20045;-78
2022/06/05 11:39:24;;;;;;;10.85;9.43;;;;;;;;;;5024523;28;20058;-78
2022/06/05 11:42:04;;;;;;;9.88;8.32;;;;;;;;;;5020724;28;20405;-78
2022/06/05 11:44:49;;;;;;;13.30;9.05;;;;;;;;;;5023693;28;20072;-77
2022/06/05 11:47:30;;;;;;;11.73;9.38;;;;;;;;;;5021700;28;20041;-78
2022/06/05 11:50:15;;;;;;;11.73;9.00;;;;;;;;;;5022463;28;20129;-77
2022/06/05 11:52:55;;;;;;;10.43;9.20;;;;;;;;;;5018776;28;20140;-78
2022/06/05 11:55:31;;;;;;;11.88;9.23;;;;;;;;;;5019623;28;20481;-81
2022/06/05 11:58:01;;;;;;;12.63;8.93;;;;;;;;;;5019641;28;20057;-75
2022/06/05 12:00:34;;;;;;;13.50;9.48;;;;;;;;;;5019826;28;20050;-78
2022/06/05 12:03:04;;;;;;;13.38;9.50;;;;;;;;;;5029446;28;20045;-77
2022/06/05 12:05:43;;;;;;;12.65;9.38;;;;;;;;;;5026856;28;20047;-77
2022/06/05 12:08:12;;;;;;;11.05;9.20;;;;;;;;;;5026840;28;20447;-77
2022/06/05 12:10:40;;;;;;;13.00;9.80;;;;;;;;;;5018384;28;20397;-77
2022/06/05 12:13:25;;;;;;;15.55;9.95;;;;;;;;;;5024476;28;20111;-76
2022/06/05 12:15:56;;;;;;;12.15;9.10;;;;;;;;;;5022192;28;20049;-77
2022/06/05 12:18:27;;;;;;;13.98;9.48;;;;;;;;;;5025037;28;20147;-77
2022/06/05 12:20:53;;;;;;;12.00;10.23;;;;;;;;;;5025861;28;20485;-77
2022/06/05 12:23:29;;;;;;;11.93;9.38;;;;;;;;;;5024345;28;20099;-77
2022/06/05 12:26:00;;;;;;;13.82;9.63;;;;;;;;;;5028655;28;20068;-77
2022/06/05 12:28:29;;;;;;;12.80;9.85;;;;;;;;;;5024640;28;20068;-77
2022/06/05 12:31:10;;;;;;;11.73;9.60;;;;;;;;;;5023984;28;20055;-77
2022/06/05 12:34:02;;;;;;;14.23;10.27;;;;;;;;;;5016555;28;20038;-77
2022/06/05 12:36:30;;;;;;;13.43;9.45;;;;;;;;;;5022183;28;20065;-77
2022/06/05 12:39:01;;;;;;;11.95;9.20;;;;;;;;;;5027122;28;20045;-77
2022/06/05 12:41:42;;;;;;;12.65;9.35;;;;;;;;;;5022444;28;20133;-77
2022/06/05 12:44:19;;;;;;;14.38;10.15;;;;;;;;;;5027044;28;20041;-77
2022/06/05 12:46:48;;;;;;;15.35;9.73;;;;;;;;;;5031126;28;20049;-77
2022/06/05 12:49:14;;;;;;;12.95;8.90;;;;;;;;;;5029872;28;20049;-77
2022/06/05 12:51:42;;;;;;;11.07;9.32;;;;;;;;;;5031446;28;20577;-77
2022/06/05 12:54:31;;;;;;;15.82;9.95;;;;;;;;;;5025622;28;20049;-77
2022/06/05 12:56:58;;;;;;;14.43;9.15;;;;;;;;;;5021390;28;20144;-78
2022/06/05 12:59:29;;;;;;;12.68;9.43;;;;;;;;;;5030655;28;20137;-77
2022/06/05 13:01:58;;;;;;;12.90;9.52;;;;;;;;;;5028145;28;20056;-78
2022/06/05 13:04:44;;;;;;;12.52;9.20;;;;;;;;;;5030072;28;20042;-77
2022/06/05 13:07:43;;;;;;;11.38;9.25;;;;;;;;;;5029439;28;20440;-78
2022/06/05 13:10:31;;;;;;;14.00;9.02;;;;;;;;;;4990556;28;20057;-77
2022/06/05 13:13:12;;;;;;;13.35;8.90;;;;;;;;;;5030890;28;20072;-78
2022/06/05 13:15:47;;;;;;;10.40;8.82;;;;;;;;;;5031973;28;20037;-78
2022/06/05 13:18:27;;;;;;;10.25;8.68;;;;;;;;;;5029321;28;20042;-78
2022/06/05 13:21:12;;;;;;;12.45;9.82;;;;;;;;;;5030352;28;20121;-78
2022/06/05 13:23:45;;;;;;;12.40;9.75;;;;;;;;;;5026660;28;20504;-77
2022/06/05 13:26:15;;;;;;;12.07;9.02;;;;;;;;;;5021757;28;20052;-77
2022/06/05 13:29:08;;;;;;;12.80;9.70;;;;;;;;;;5032205;28;20055;-78
2022/06/05 13:31:53;;;;;;;13.25;9.18;;;;;;;;;;5020249;28;20568;-78
2022/06/05 13:34:19;;;;;;;13.63;9.70;;;;;;;;;;5028273;28;20049;-77
2022/06/05 13:36:57;;;;;;;14.95;9.52;;;;;;;;;;5030638;28;20045;-78
2022/06/05 13:39:36;;;;;;;13.95;9.27;;;;;;;;;;5029149;28;20414;-77
2022/06/05 13:42:05;;;;;;;11.68;9.13;;;;;;;;;;5021932;28;20072;-78
2022/06/05 13:44:33;;;;;;;17.15;10.05;;;;;;;;;;5027960;28;20091;-77
2022/06/05 13:47:16;;;;;;;13.85;9.85;;;;;;;;;;5029067;28;20042;-78
2022/06/05 13:49:48;;;;;;;12.88;10.00;;;;;;;;;;5030273;28;20550;-78
2022/06/05 13:52:26;;;;;;;15.32;10.10;;;;;;;;;;5028592;28;20167;-78
2022/06/05 13:54:56;;;;;;;11.52;9.38;;;;;;;;;;5029560;28;20041;-77
2022/06/05 13:57:40;;;;;;;14.73;10.18;;;;;;;;;;5027466;28;20438;-77
2022/06/05 14:00:17;;;;;;;14.15;9.77;;;;;;;;;;5029061;28;20045;-77
2022/06/05 14:02:45;;;;;;;13.27;9.60;;;;;;;;;;5024484;28;20102;-77
2022/06/05 14:05:11;;;;;;;10.75;9.30;;;;;;;;;;5029344;28;20046;-77
2022/06/05 14:07:49;;;;;;;13.75;9.82;;;;;;;;;;5029366;28;20048;-77
2022/06/05 14:10:21;;;;;;;12.48;9.70;;;;;;;;;;5026136;28;20442;-77
2022/06/05 14:12:52;;;;;;;11.63;9.60;;;;;;;;;;5028819;28;20045;-77
2022/06/05 14:15:27;;;;;;;11.93;10.15;;;;;;;;;;5028988;28;20076;-77
2022/06/05 14:17:55;;;;;;;14.68;10.13;;;;;;;;;;5025000;28;20524;-78
2022/06/05 14:20:22;;;;;;;12.02;9.95;;;;;;;;;;5029102;28;20053;-78
2022/06/05 14:22:50;;;;;;;12.05;9.52;;;;;;;;;;5028622;28;20041;-77
2022/06/05 14:25:21;;;;;;;12.38;10.02;;;;;;;;;;5029285;28;20050;-77
2022/06/05 14:27:54;;;;;;;11.25;9.30;;;;;;;;;;5026819;28;20099;-77
2022/06/05 14:30:22;;;;;;;11.98;9.68;;;;;;;;;;5029262;28;20366;-77
2022/06/05 14:32:49;;;;;;;13.43;10.73;;;;;;;;;;5028560;28;20041;-78
2022/06/05 14:35:15;;;;;;;10.90;9.18;;;;;;;;;;5028319;28;20049;-77
2022/06/05 14:38:03;;;;;;;13.27;9.60;;;;;;;;;;5023982;28;20048;-77